sensor_id;sensor_type;location;lat;lon;timestamp;P1;durP1;ratioP1;P2;durP2;ratioP2
13941;SDS011;7043;51.630;7.254;2022-08-19T00:00:17;6.47;;;6.07;;
13941;SDS011;7043;51.630;7.254;2022-08-19T00:02:43;6.45;;;5.82;;
13941;SDS011;7043;51.630;7.254;2022-08-19T00:05:11;6.88;;;6.38;;
13941;SDS011;7043;51.630;7.254;2022-08-19T00:07:37;6.70;;;6.13;;
13941;SDS011;7043;51.630;7.254;2022-08-19T00:10:04;6.95;;;6.35;;
13941;SDS011;7043;51.630;7.254;2022-08-19T00:12:30;7.15;;;6.55;;
13941;SDS011;7043;51.630;7.254;2022-08-19T00:14:57;7.55;;;6.95;;
13941;SDS011;7043;51.630;7.254;2022-08-19T00:17:23;7.68;;;7.05;;
13941;SDS011;7043;51.630;7.254;2022-08-19T00:19:49;6.47;;;5.90;;
13941;SDS011;7043;51.630;7.254;2022-08-19T00:22:15;7.05;;;6.35;;
13941;SDS011;7043;51.630;7.254;2022-08-19T00:24:43;6.70;;;6.10;;
13941;SDS011;7043;51.630;7.254;2022-08-19T00:27:10;6.50;;;6.00;;
13941;SDS011;7043;51.630;7.254;2022-08-19T00:29:37;7.15;;;6.55;;
13941;SDS011;7043;51.630;7.254;2022-08-19T00:32:03;6.82;;;6.30;;
13941;SDS011;7043;51.630;7.254;2022-08-19T00:34:29;8.07;;;7.28;;
13941;SDS011;7043;51.630;7.254;2022-08-19T00:36:55;7.85;;;7.13;;
13941;SDS011;7043;51.630;7.254;2022-08-19T00:39:21;6.85;;;6.35;;
13941;SDS011;7043;51.630;7.254;2022-08-19T00:41:48;7.78;;;7.07;;
13941;SDS011;7043;51.630;7.254;2022-08-19T00:44:15;7.22;;;6.65;;
13941;SDS011;7043;51.630;7.254;2022-08-19T00:46:44;7.07;;;6.47;;
13941;SDS011;7043;51.630;7.254;2022-08-19T00:49:14;7.95;;;7.35;;
13941;SDS011;7043;51.630;7.254;2022-08-19T00:51:42;7.78;;;7.07;;
13941;SDS011;7043;51.630;7.254;2022-08-19T00:54:10;7.18;;;6.63;;
13941;SDS011;7043;51.630;7.254;2022-08-19T00:56:36;7.50;;;6.90;;
13941;SDS011;7043;51.630;7.254;2022-08-19T00:59:02;7.78;;;7.07;;
13941;SDS011;7043;51.630;7.254;2022-08-19T01:01:37;8.30;;;7.50;;
13941;SDS011;7043;51.630;7.254;2022-08-19T01:04:03;7.50;;;6.80;;
13941;SDS011;7043;51.630;7.254;2022-08-19T01:06:29;8.80;;;7.95;;
13941;SDS011;7043;51.630;7.254;2022-08-19T01:08:57;8.52;;;7.82;;
13941;SDS011;7043;51.630;7.254;2022-08-19T01:11:23;8.70;;;6.95;;
13941;SDS011;7043;51.630;7.254;2022-08-19T01:13:50;9.40;;;7.95;;
13941;SDS011;7043;51.630;7.254;2022-08-19T01:16:17;7.43;;;6.82;;
13941;SDS011;7043;51.630;7.254;2022-08-19T01:18:44;8.60;;;7.85;;
13941;SDS011;7043;51.630;7.254;2022-08-19T01:21:12;8.95;;;8.25;;
13941;SDS011;7043;51.630;7.254;2022-08-19T01:23:42;9.82;;;8.93;;
13941;SDS011;7043;51.630;7.254;2022-08-19T01:26:10;8.40;;;7.70;;
13941;SDS011;7043;51.630;7.254;2022-08-19T01:28:36;8.15;;;7.55;;
13941;SDS011;7043;51.630;7.254;2022-08-19T01:31:03;7.45;;;6.93;;
13941;SDS011;7043;51.630;7.254;2022-08-19T01:33:30;8.98;;;8.18;;
13941;SDS011;7043;51.630;7.254;2022-08-19T01:36:03;8.27;;;7.60;;
13941;SDS011;7043;51.630;7.254;2022-08-19T01:38:30;9.73;;;8.88;;
13941;SDS011;7043;51.630;7.254;2022-08-19T01:40:56;9.90;;;9.07;;
13941;SDS011;7043;51.630;7.254;2022-08-19T01:43:23;10.02;;;9.10;;
13941;SDS011;7043;51.630;7.254;2022-08-19T01:45:49;10.63;;;9.73;;
13941;SDS011;7043;51.630;7.254;2022-08-19T01:48:15;11.32;;;10.32;;
13941;SDS011;7043;51.630;7.254;2022-08-19T01:50:42;11.30;;;10.25;;
13941;SDS011;7043;51.630;7.254;2022-08-19T01:53:09;10.50;;;9.52;;
13941;SDS011;7043;51.630;7.254;2022-08-19T01:55:38;12.98;;;11.82;;
13941;SDS011;7043;51.630;7.254;2022-08-19T01:58:05;12.10;;;10.90;;
13941;SDS011;7043;51.630;7.254;2022-08-19T02:00:31;11.35;;;10.35;;
13941;SDS011;7043;51.630;7.254;2022-08-19T02:02:58;11.80;;;10.70;;
13941;SDS011;7043;51.630;7.254;2022-08-19T02:05:26;12.40;;;11.30;;
13941;SDS011;7043;51.630;7.254;2022-08-19T02:07:54;12.27;;;11.13;;
13941;SDS011;7043;51.630;7.254;2022-08-19T02:10:21;13.57;;;12.17;;
13941;SDS011;7043;51.630;7.254;2022-08-19T02:12:47;15.53;;;14.13;;
13941;SDS011;7043;51.630;7.254;2022-08-19T02:15:14;15.40;;;13.93;;
13941;SDS011;7043;51.630;7.254;2022-08-19T02:17:40;15.33;;;13.93;;
13941;SDS011;7043;51.630;7.254;2022-08-19T02:20:06;16.03;;;14.53;;
13941;SDS011;7043;51.630;7.254;2022-08-19T02:22:33;17.03;;;15.23;;
13941;SDS011;7043;51.630;7.254;2022-08-19T02:25:00;14.10;;;12.80;;
13941;SDS011;7043;51.630;7.254;2022-08-19T02:27:26;16.40;;;14.90;;
13941;SDS011;7043;51.630;7.254;2022-08-19T02:29:52;16.07;;;14.57;;
13941;SDS011;7043;51.630;7.254;2022-08-19T02:32:18;18.67;;;16.97;;
13941;SDS011;7043;51.630;7.254;2022-08-19T02:34:45;18.50;;;16.70;;
13941;SDS011;7043;51.630;7.254;2022-08-19T02:37:11;18.67;;;16.87;;
13941;SDS011;7043;51.630;7.254;2022-08-19T02:39:57;18.60;;;16.70;;
13941;SDS011;7043;51.630;7.254;2022-08-19T02:42:23;14.30;;;13.00;;
13941;SDS011;7043;51.630;7.254;2022-08-19T02:44:49;16.90;;;15.40;;
13941;SDS011;7043;51.630;7.254;2022-08-19T02:47:16;17.23;;;15.57;;
13941;SDS011;7043;51.630;7.254;2022-08-19T02:49:43;18.77;;;16.97;;
13941;SDS011;7043;51.630;7.254;2022-08-19T02:52:09;16.83;;;15.33;;
13941;SDS011;7043;51.630;7.254;2022-08-19T02:54:36;19.83;;;17.93;;
13941;SDS011;7043;51.630;7.254;2022-08-19T02:57:03;18.50;;;16.73;;
13941;SDS011;7043;51.630;7.254;2022-08-19T02:59:29;19.00;;;17.30;;
13941;SDS011;7043;51.630;7.254;2022-08-19T03:01:55;19.13;;;17.33;;
13941;SDS011;7043;51.630;7.254;2022-08-19T03:04:21;18.20;;;16.57;;
13941;SDS011;7043;51.630;7.254;2022-08-19T03:06:49;17.63;;;15.83;;
13941;SDS011;7043;51.630;7.254;2022-08-19T03:09:16;16.90;;;15.40;;
13941;SDS011;7043;51.630;7.254;2022-08-19T03:11:42;17.07;;;15.40;;
13941;SDS011;7043;51.630;7.254;2022-08-19T03:14:08;16.33;;;14.83;;
13941;SDS011;7043;51.630;7.254;2022-08-19T03:16:41;15.57;;;14.10;;
13941;SDS011;7043;51.630;7.254;2022-08-19T03:19:08;15.60;;;14.10;;
13941;SDS011;7043;51.630;7.254;2022-08-19T03:21:34;15.73;;;14.27;;
13941;SDS011;7043;51.630;7.254;2022-08-19T03:24:01;14.00;;;12.60;;
13941;SDS011;7043;51.630;7.254;2022-08-19T03:26:28;17.63;;;15.90;;
13941;SDS011;7043;51.630;7.254;2022-08-19T03:28:54;16.30;;;14.80;;
13941;SDS011;7043;51.630;7.254;2022-08-19T03:31:21;16.70;;;15.03;;
13941;SDS011;7043;51.630;7.254;2022-08-19T03:33:48;16.38;;;14.82;;
13941;SDS011;7043;51.630;7.254;2022-08-19T03:36:15;16.35;;;14.85;;
13941;SDS011;7043;51.630;7.254;2022-08-19T03:38:43;16.60;;;15.10;;
13941;SDS011;7043;51.630;7.254;2022-08-19T03:41:11;16.70;;;15.10;;
13941;SDS011;7043;51.630;7.254;2022-08-19T03:43:37;16.43;;;14.83;;
13941;SDS011;7043;51.630;7.254;2022-08-19T03:46:04;14.00;;;12.70;;
13941;SDS011;7043;51.630;7.254;2022-08-19T03:48:31;14.57;;;13.07;;
13941;SDS011;7043;51.630;7.254;2022-08-19T03:50:58;15.00;;;13.60;;
13941;SDS011;7043;51.630;7.254;2022-08-19T03:53:25;14.33;;;12.93;;
13941;SDS011;7043;51.630;7.254;2022-08-19T03:55:51;16.43;;;14.87;;
13941;SDS011;7043;51.630;7.254;2022-08-19T03:58:18;14.70;;;13.30;;
13941;SDS011;7043;51.630;7.254;2022-08-19T04:00:44;14.47;;;13.13;;
13941;SDS011;7043;51.630;7.254;2022-08-19T04:03:10;15.45;;;13.95;;
13941;SDS011;7043;51.630;7.254;2022-08-19T04:05:36;17.42;;;15.20;;
13941;SDS011;7043;51.630;7.254;2022-08-19T04:08:03;14.57;;;13.17;;
13941;SDS011;7043;51.630;7.254;2022-08-19T04:10:31;14.57;;;13.27;;
13941;SDS011;7043;51.630;7.254;2022-08-19T04:13:00;14.82;;;13.43;;
13941;SDS011;7043;51.630;7.254;2022-08-19T04:15:26;16.70;;;15.10;;
13941;SDS011;7043;51.630;7.254;2022-08-19T04:17:55;15.30;;;13.93;;
13941;SDS011;7043;51.630;7.254;2022-08-19T04:20:21;15.63;;;14.13;;
13941;SDS011;7043;51.630;7.254;2022-08-19T04:22:47;14.80;;;13.47;;
13941;SDS011;7043;51.630;7.254;2022-08-19T04:25:16;15.07;;;13.67;;
13941;SDS011;7043;51.630;7.254;2022-08-19T04:27:43;15.37;;;13.80;;
13941;SDS011;7043;51.630;7.254;2022-08-19T04:30:12;17.05;;;15.30;;
13941;SDS011;7043;51.630;7.254;2022-08-19T04:32:38;16.17;;;13.23;;
13941;SDS011;7043;51.630;7.254;2022-08-19T04:35:04;15.73;;;14.17;;
13941;SDS011;7043;51.630;7.254;2022-08-19T04:37:30;18.30;;;16.50;;
13941;SDS011;7043;51.630;7.254;2022-08-19T04:39:58;17.43;;;15.27;;
13941;SDS011;7043;51.630;7.254;2022-08-19T04:42:43;19.07;;;17.27;;
13941;SDS011;7043;51.630;7.254;2022-08-19T04:45:11;17.80;;;16.00;;
13941;SDS011;7043;51.630;7.254;2022-08-19T04:47:38;18.53;;;16.57;;
13941;SDS011;7043;51.630;7.254;2022-08-19T04:50:06;19.63;;;17.73;;
13941;SDS011;7043;51.630;7.254;2022-08-19T04:52:32;19.77;;;16.87;;
13941;SDS011;7043;51.630;7.254;2022-08-19T04:54:58;19.57;;;17.67;;
13941;SDS011;7043;51.630;7.254;2022-08-19T04:57:24;20.13;;;17.83;;
13941;SDS011;7043;51.630;7.254;2022-08-19T04:59:54;20.10;;;18.07;;
13941;SDS011;7043;51.630;7.254;2022-08-19T05:02:21;19.57;;;17.73;;
13941;SDS011;7043;51.630;7.254;2022-08-19T05:04:49;21.60;;;19.50;;
13941;SDS011;7043;51.630;7.254;2022-08-19T05:07:15;21.30;;;19.20;;
13941;SDS011;7043;51.630;7.254;2022-08-19T05:09:42;20.67;;;18.57;;
13941;SDS011;7043;51.630;7.254;2022-08-19T05:12:08;20.33;;;18.33;;
13941;SDS011;7043;51.630;7.254;2022-08-19T05:14:34;21.27;;;19.27;;
13941;SDS011;7043;51.630;7.254;2022-08-19T05:17:01;20.90;;;18.90;;
13941;SDS011;7043;51.630;7.254;2022-08-19T05:19:28;21.90;;;19.80;;
13941;SDS011;7043;51.630;7.254;2022-08-19T05:22:12;21.57;;;19.27;;
13941;SDS011;7043;51.630;7.254;2022-08-19T05:24:58;18.03;;;16.10;;
13941;SDS011;7043;51.630;7.254;2022-08-19T05:27:25;20.77;;;18.63;;
13941;SDS011;7043;51.630;7.254;2022-08-19T05:29:51;22.48;;;20.27;;
13941;SDS011;7043;51.630;7.254;2022-08-19T05:32:17;21.98;;;19.75;;
13941;SDS011;7043;51.630;7.254;2022-08-19T05:34:43;23.52;;;20.70;;
13941;SDS011;7043;51.630;7.254;2022-08-19T05:37:10;21.83;;;19.52;;
13941;SDS011;7043;51.630;7.254;2022-08-19T05:39:36;22.77;;;20.53;;
13941;SDS011;7043;51.630;7.254;2022-08-19T05:42:04;22.38;;;19.95;;
13941;SDS011;7043;51.630;7.254;2022-08-19T05:44:32;23.20;;;20.95;;
13941;SDS011;7043;51.630;7.254;2022-08-19T05:46:59;22.95;;;20.63;;
13941;SDS011;7043;51.630;7.254;2022-08-19T05:49:26;21.70;;;19.50;;
13941;SDS011;7043;51.630;7.254;2022-08-19T05:51:52;24.67;;;22.08;;
13941;SDS011;7043;51.630;7.254;2022-08-19T05:54:20;20.85;;;18.67;;
13941;SDS011;7043;51.630;7.254;2022-08-19T05:56:48;22.83;;;20.63;;
13941;SDS011;7043;51.630;7.254;2022-08-19T05:59:15;22.63;;;20.35;;
13941;SDS011;7043;51.630;7.254;2022-08-19T06:01:42;23.02;;;20.95;;
13941;SDS011;7043;51.630;7.254;2022-08-19T06:04:09;24.67;;;22.13;;
13941;SDS011;7043;51.630;7.254;2022-08-19T06:06:35;25.67;;;22.97;;
13941;SDS011;7043;51.630;7.254;2022-08-19T06:09:03;26.67;;;24.17;;
13941;SDS011;7043;51.630;7.254;2022-08-19T06:11:39;27.33;;;24.02;;
13941;SDS011;7043;51.630;7.254;2022-08-19T06:14:10;25.23;;;22.60;;
13941;SDS011;7043;51.630;7.254;2022-08-19T06:16:38;26.45;;;23.80;;
13941;SDS011;7043;51.630;7.254;2022-08-19T06:19:06;24.30;;;21.83;;
13941;SDS011;7043;51.630;7.254;2022-08-19T06:21:33;24.65;;;22.25;;
13941;SDS011;7043;51.630;7.254;2022-08-19T06:23:59;27.23;;;24.48;;
13941;SDS011;7043;51.630;7.254;2022-08-19T06:26:25;27.38;;;24.77;;
13941;SDS011;7043;51.630;7.254;2022-08-19T06:28:52;26.65;;;24.10;;
13941;SDS011;7043;51.630;7.254;2022-08-19T06:31:21;26.58;;;23.80;;
13941;SDS011;7043;51.630;7.254;2022-08-19T06:33:48;25.52;;;23.20;;
13941;SDS011;7043;51.630;7.254;2022-08-19T06:36:18;26.77;;;24.15;;
13941;SDS011;7043;51.630;7.254;2022-08-19T06:38:44;26.88;;;24.13;;
13941;SDS011;7043;51.630;7.254;2022-08-19T06:41:10;27.40;;;24.15;;
13941;SDS011;7043;51.630;7.254;2022-08-19T06:43:36;27.65;;;24.80;;
13941;SDS011;7043;51.630;7.254;2022-08-19T06:46:02;25.83;;;23.25;;
13941;SDS011;7043;51.630;7.254;2022-08-19T06:48:29;26.08;;;23.27;;
13941;SDS011;7043;51.630;7.254;2022-08-19T06:50:55;26.00;;;23.30;;
13941;SDS011;7043;51.630;7.254;2022-08-19T06:53:21;25.48;;;22.63;;
13941;SDS011;7043;51.630;7.254;2022-08-19T06:55:47;24.27;;;21.83;;
13941;SDS011;7043;51.630;7.254;2022-08-19T06:58:25;24.98;;;22.17;;
13941;SDS011;7043;51.630;7.254;2022-08-19T07:00:51;25.08;;;22.52;;
13941;SDS011;7043;51.630;7.254;2022-08-19T07:03:17;24.05;;;21.65;;
13941;SDS011;7043;51.630;7.254;2022-08-19T07:05:43;23.48;;;21.00;;
13941;SDS011;7043;51.630;7.254;2022-08-19T07:08:09;24.77;;;22.05;;
13941;SDS011;7043;51.630;7.254;2022-08-19T07:10:35;24.33;;;21.67;;
13941;SDS011;7043;51.630;7.254;2022-08-19T07:13:02;25.65;;;21.70;;
13941;SDS011;7043;51.630;7.254;2022-08-19T07:15:28;24.42;;;21.92;;
13941;SDS011;7043;51.630;7.254;2022-08-19T07:17:56;22.73;;;20.40;;
13941;SDS011;7043;51.630;7.254;2022-08-19T07:20:22;23.20;;;20.90;;
13941;SDS011;7043;51.630;7.254;2022-08-19T07:22:48;22.63;;;20.25;;
13941;SDS011;7043;51.630;7.254;2022-08-19T07:25:15;21.45;;;19.15;;
13941;SDS011;7043;51.630;7.254;2022-08-19T07:27:42;20.80;;;18.80;;
13941;SDS011;7043;51.630;7.254;2022-08-19T07:30:09;20.23;;;18.13;;
13941;SDS011;7043;51.630;7.254;2022-08-19T07:32:36;18.67;;;16.67;;
13941;SDS011;7043;51.630;7.254;2022-08-19T07:35:03;18.35;;;16.45;;
13941;SDS011;7043;51.630;7.254;2022-08-19T07:37:31;18.25;;;16.45;;
13941;SDS011;7043;51.630;7.254;2022-08-19T07:39:57;16.38;;;14.77;;
13941;SDS011;7043;51.630;7.254;2022-08-19T07:42:23;16.33;;;14.73;;
13941;SDS011;7043;51.630;7.254;2022-08-19T07:44:49;17.45;;;15.52;;
13941;SDS011;7043;51.630;7.254;2022-08-19T07:47:15;16.70;;;14.80;;
13941;SDS011;7043;51.630;7.254;2022-08-19T07:49:42;16.35;;;14.57;;
13941;SDS011;7043;51.630;7.254;2022-08-19T07:52:08;16.48;;;14.88;;
13941;SDS011;7043;51.630;7.254;2022-08-19T07:54:35;17.73;;;15.85;;
13941;SDS011;7043;51.630;7.254;2022-08-19T07:57:02;19.23;;;15.90;;
13941;SDS011;7043;51.630;7.254;2022-08-19T07:59:28;18.90;;;16.90;;
13941;SDS011;7043;51.630;7.254;2022-08-19T08:01:54;18.77;;;16.83;;
13941;SDS011;7043;51.630;7.254;2022-08-19T08:04:21;19.23;;;17.33;;
13941;SDS011;7043;51.630;7.254;2022-08-19T08:07:06;18.67;;;16.88;;
13941;SDS011;7043;51.630;7.254;2022-08-19T08:09:52;18.40;;;16.48;;
13941;SDS011;7043;51.630;7.254;2022-08-19T08:12:20;18.52;;;16.27;;
13941;SDS011;7043;51.630;7.254;2022-08-19T08:14:49;17.17;;;15.57;;
13941;SDS011;7043;51.630;7.254;2022-08-19T08:17:17;17.50;;;15.80;;
13941;SDS011;7043;51.630;7.254;2022-08-19T08:19:44;17.17;;;15.60;;
13941;SDS011;7043;51.630;7.254;2022-08-19T08:22:11;18.08;;;16.27;;
13941;SDS011;7043;51.630;7.254;2022-08-19T08:24:56;15.75;;;14.30;;
13941;SDS011;7043;51.630;7.254;2022-08-19T08:27:23;17.35;;;15.63;;
13941;SDS011;7043;51.630;7.254;2022-08-19T08:29:49;17.73;;;16.08;;
13941;SDS011;7043;51.630;7.254;2022-08-19T08:32:16;18.33;;;16.42;;
13941;SDS011;7043;51.630;7.254;2022-08-19T08:34:42;18.20;;;16.40;;
13941;SDS011;7043;51.630;7.254;2022-08-19T08:37:08;16.85;;;15.15;;
13941;SDS011;7043;51.630;7.254;2022-08-19T08:39:34;17.10;;;15.30;;
13941;SDS011;7043;51.630;7.254;2022-08-19T08:42:15;17.27;;;15.57;;
13941;SDS011;7043;51.630;7.254;2022-08-19T08:44:45;15.27;;;13.80;;
13941;SDS011;7043;51.630;7.254;2022-08-19T08:47:14;16.80;;;15.20;;
13941;SDS011;7043;51.630;7.254;2022-08-19T08:49:51;16.27;;;14.75;;
13941;SDS011;7043;51.630;7.254;2022-08-19T08:52:26;14.82;;;13.52;;
13941;SDS011;7043;51.630;7.254;2022-08-19T08:54:54;16.63;;;15.23;;
13941;SDS011;7043;51.630;7.254;2022-08-19T08:59:47;13.60;;;12.30;;
13941;SDS011;7043;51.630;7.254;2022-08-19T09:02:16;15.32;;;14.02;;
13941;SDS011;7043;51.630;7.254;2022-08-19T09:04:43;14.48;;;13.00;;
13941;SDS011;7043;51.630;7.254;2022-08-19T09:09:46;15.30;;;13.80;;
13941;SDS011;7043;51.630;7.254;2022-08-19T09:14:48;13.43;;;12.15;;
13941;SDS011;7043;51.630;7.254;2022-08-19T09:17:16;13.85;;;12.48;;
13941;SDS011;7043;51.630;7.254;2022-08-19T09:22:14;11.98;;;10.98;;
13941;SDS011;7043;51.630;7.254;2022-08-19T09:24:40;14.50;;;11.80;;
13941;SDS011;7043;51.630;7.254;2022-08-19T09:27:09;14.13;;;12.93;;
13941;SDS011;7043;51.630;7.254;2022-08-19T09:29:42;18.95;;;17.25;;
13941;SDS011;7043;51.630;7.254;2022-08-19T09:32:08;17.08;;;15.48;;
13941;SDS011;7043;51.630;7.254;2022-08-19T09:34:34;19.95;;;18.23;;
13941;SDS011;7043;51.630;7.254;2022-08-19T09:37:00;19.67;;;17.73;;
13941;SDS011;7043;51.630;7.254;2022-08-19T09:39:28;20.35;;;18.25;;
13941;SDS011;7043;51.630;7.254;2022-08-19T09:41:56;18.90;;;16.98;;
13941;SDS011;7043;51.630;7.254;2022-08-19T09:44:22;17.98;;;16.27;;
13941;SDS011;7043;51.630;7.254;2022-08-19T09:46:48;18.70;;;16.90;;
13941;SDS011;7043;51.630;7.254;2022-08-19T09:49:18;17.73;;;15.88;;
13941;SDS011;7043;51.630;7.254;2022-08-19T09:51:49;19.80;;;17.95;;
13941;SDS011;7043;51.630;7.254;2022-08-19T09:54:15;22.17;;;20.13;;
13941;SDS011;7043;51.630;7.254;2022-08-19T09:56:41;19.90;;;18.10;;
13941;SDS011;7043;51.630;7.254;2022-08-19T09:59:08;21.23;;;19.33;;
13941;SDS011;7043;51.630;7.254;2022-08-19T10:01:35;19.02;;;17.23;;
13941;SDS011;7043;51.630;7.254;2022-08-19T10:04:01;21.55;;;19.58;;
13941;SDS011;7043;51.630;7.254;2022-08-19T10:06:29;22.90;;;20.25;;
13941;SDS011;7043;51.630;7.254;2022-08-19T10:08:57;19.95;;;17.95;;
13941;SDS011;7043;51.630;7.254;2022-08-19T10:11:23;20.02;;;18.13;;
13941;SDS011;7043;51.630;7.254;2022-08-19T10:13:51;18.98;;;17.08;;
13941;SDS011;7043;51.630;7.254;2022-08-19T10:16:18;20.38;;;18.27;;
13941;SDS011;7043;51.630;7.254;2022-08-19T10:18:45;21.27;;;19.17;;
13941;SDS011;7043;51.630;7.254;2022-08-19T10:21:12;22.42;;;20.25;;
13941;SDS011;7043;51.630;7.254;2022-08-19T10:23:39;20.13;;;17.98;;
13941;SDS011;7043;51.630;7.254;2022-08-19T10:26:08;17.08;;;15.38;;
13941;SDS011;7043;51.630;7.254;2022-08-19T10:28:35;19.00;;;17.20;;
13941;SDS011;7043;51.630;7.254;2022-08-19T10:31:08;16.40;;;14.90;;
13941;SDS011;7043;51.630;7.254;2022-08-19T10:33:35;17.23;;;15.55;;
13941;SDS011;7043;51.630;7.254;2022-08-19T10:36:12;17.20;;;15.70;;
13941;SDS011;7043;51.630;7.254;2022-08-19T10:38:42;13.10;;;11.90;;
13941;SDS011;7043;51.630;7.254;2022-08-19T10:41:11;13.38;;;12.27;;
13941;SDS011;7043;51.630;7.254;2022-08-19T10:43:37;14.70;;;13.38;;
13941;SDS011;7043;51.630;7.254;2022-08-19T10:46:05;13.38;;;12.25;;
13941;SDS011;7043;51.630;7.254;2022-08-19T10:48:32;13.85;;;12.50;;
13941;SDS011;7043;51.630;7.254;2022-08-19T10:50:58;15.25;;;13.73;;
13941;SDS011;7043;51.630;7.254;2022-08-19T10:53:43;12.57;;;11.27;;
13941;SDS011;7043;51.630;7.254;2022-08-19T10:56:09;13.35;;;12.13;;
13941;SDS011;7043;51.630;7.254;2022-08-19T10:58:54;15.10;;;13.60;;
13941;SDS011;7043;51.630;7.254;2022-08-19T11:01:21;15.93;;;14.52;;
13941;SDS011;7043;51.630;7.254;2022-08-19T11:03:47;13.65;;;12.32;;
13941;SDS011;7043;51.630;7.254;2022-08-19T11:06:13;12.55;;;11.25;;
13941;SDS011;7043;51.630;7.254;2022-08-19T11:08:39;13.25;;;12.07;;
13941;SDS011;7043;51.630;7.254;2022-08-19T11:11:07;14.27;;;12.77;;
13941;SDS011;7043;51.630;7.254;2022-08-19T11:13:36;16.55;;;15.05;;
13941;SDS011;7043;51.630;7.254;2022-08-19T11:16:04;15.05;;;13.70;;
13941;SDS011;7043;51.630;7.254;2022-08-19T11:18:32;15.13;;;13.77;;
13941;SDS011;7043;51.630;7.254;2022-08-19T11:21:05;13.70;;;12.32;;
13941;SDS011;7043;51.630;7.254;2022-08-19T11:23:31;11.90;;;10.73;;
13941;SDS011;7043;51.630;7.254;2022-08-19T11:25:58;11.98;;;10.90;;
13941;SDS011;7043;51.630;7.254;2022-08-19T11:28:26;17.73;;;15.65;;
13941;SDS011;7043;51.630;7.254;2022-08-19T11:30:52;17.08;;;15.60;;
13941;SDS011;7043;51.630;7.254;2022-08-19T11:33:18;19.67;;;17.88;;
13941;SDS011;7043;51.630;7.254;2022-08-19T11:35:44;18.83;;;17.13;;
13941;SDS011;7043;51.630;7.254;2022-08-19T11:38:10;19.33;;;17.45;;
13941;SDS011;7043;51.630;7.254;2022-08-19T11:40:36;18.95;;;15.93;;
13941;SDS011;7043;51.630;7.254;2022-08-19T11:43:03;18.88;;;16.88;;
13941;SDS011;7043;51.630;7.254;2022-08-19T11:45:29;19.58;;;17.63;;
13941;SDS011;7043;51.630;7.254;2022-08-19T11:47:55;17.98;;;16.40;;
13941;SDS011;7043;51.630;7.254;2022-08-19T11:50:22;18.33;;;16.60;;
13941;SDS011;7043;51.630;7.254;2022-08-19T11:52:48;17.58;;;15.73;;
13941;SDS011;7043;51.630;7.254;2022-08-19T11:55:14;16.98;;;15.40;;
13941;SDS011;7043;51.630;7.254;2022-08-19T11:57:41;14.05;;;12.63;;
13941;SDS011;7043;51.630;7.254;2022-08-19T12:00:08;16.42;;;14.93;;
13941;SDS011;7043;51.630;7.254;2022-08-19T12:02:42;17.98;;;16.33;;
13941;SDS011;7043;51.630;7.254;2022-08-19T12:05:09;18.88;;;17.17;;
13941;SDS011;7043;51.630;7.254;2022-08-19T12:07:35;18.95;;;17.13;;
13941;SDS011;7043;51.630;7.254;2022-08-19T12:10:01;20.05;;;18.05;;
13941;SDS011;7043;51.630;7.254;2022-08-19T12:12:28;22.52;;;20.40;;
13941;SDS011;7043;51.630;7.254;2022-08-19T12:14:54;20.80;;;18.65;;
13941;SDS011;7043;51.630;7.254;2022-08-19T12:17:24;19.52;;;17.77;;
13941;SDS011;7043;51.630;7.254;2022-08-19T12:19:52;17.30;;;15.80;;
13941;SDS011;7043;51.630;7.254;2022-08-19T12:22:18;16.67;;;15.25;;
13941;SDS011;7043;51.630;7.254;2022-08-19T12:24:45;15.95;;;14.50;;
13941;SDS011;7043;51.630;7.254;2022-08-19T12:27:12;14.90;;;13.60;;
13941;SDS011;7043;51.630;7.254;2022-08-19T12:29:39;12.88;;;11.77;;
13941;SDS011;7043;51.630;7.254;2022-08-19T12:32:06;11.57;;;10.68;;
13941;SDS011;7043;51.630;7.254;2022-08-19T12:34:32;11.57;;;10.57;;
13941;SDS011;7043;51.630;7.254;2022-08-19T12:37:00;11.43;;;10.45;;
13941;SDS011;7043;51.630;7.254;2022-08-19T12:39:27;10.07;;;9.20;;
13941;SDS011;7043;51.630;7.254;2022-08-19T12:41:53;11.25;;;10.35;;
13941;SDS011;7043;51.630;7.254;2022-08-19T12:44:19;12.45;;;11.35;;
13941;SDS011;7043;51.630;7.254;2022-08-19T12:46:46;11.80;;;10.80;;
13941;SDS011;7043;51.630;7.254;2022-08-19T12:49:12;11.77;;;10.77;;
13941;SDS011;7043;51.630;7.254;2022-08-19T12:51:38;11.35;;;10.45;;
13941;SDS011;7043;51.630;7.254;2022-08-19T12:54:04;15.48;;;14.15;;
13941;SDS011;7043;51.630;7.254;2022-08-19T12:56:31;14.07;;;12.77;;
13941;SDS011;7043;51.630;7.254;2022-08-19T12:59:00;14.88;;;13.48;;
13941;SDS011;7043;51.630;7.254;2022-08-19T13:01:26;12.93;;;11.73;;
13941;SDS011;7043;51.630;7.254;2022-08-19T13:03:57;14.43;;;13.23;;
13941;SDS011;7043;51.630;7.254;2022-08-19T13:06:23;13.85;;;12.65;;
13941;SDS011;7043;51.630;7.254;2022-08-19T13:08:49;14.50;;;13.10;;
13941;SDS011;7043;51.630;7.254;2022-08-19T13:11:16;12.52;;;11.52;;
13941;SDS011;7043;51.630;7.254;2022-08-19T13:13:43;11.40;;;10.25;;
13941;SDS011;7043;51.630;7.254;2022-08-19T13:16:10;14.85;;;13.45;;
13941;SDS011;7043;51.630;7.254;2022-08-19T13:18:37;14.65;;;13.43;;
13941;SDS011;7043;51.630;7.254;2022-08-19T13:21:04;13.48;;;12.25;;
13941;SDS011;7043;51.630;7.254;2022-08-19T13:23:31;13.38;;;12.15;;
13941;SDS011;7043;51.630;7.254;2022-08-19T13:25:58;13.30;;;12.10;;
13941;SDS011;7043;51.630;7.254;2022-08-19T13:28:24;12.88;;;11.77;;
13941;SDS011;7043;51.630;7.254;2022-08-19T13:30:50;11.73;;;10.73;;
13941;SDS011;7043;51.630;7.254;2022-08-19T13:33:34;10.60;;;9.80;;
13941;SDS011;7043;51.630;7.254;2022-08-19T13:36:00;13.20;;;12.00;;
13941;SDS011;7043;51.630;7.254;2022-08-19T13:38:27;12.20;;;11.10;;
13941;SDS011;7043;51.630;7.254;2022-08-19T13:40:55;10.35;;;9.45;;
13941;SDS011;7043;51.630;7.254;2022-08-19T13:43:22;9.20;;;8.40;;
13941;SDS011;7043;51.630;7.254;2022-08-19T13:45:52;10.80;;;9.90;;
13941;SDS011;7043;51.630;7.254;2022-08-19T13:48:20;9.20;;;8.38;;
13941;SDS011;7043;51.630;7.254;2022-08-19T13:50:46;8.10;;;7.10;;
13941;SDS011;7043;51.630;7.254;2022-08-19T13:53:13;8.13;;;7.32;;
13941;SDS011;7043;51.630;7.254;2022-08-19T13:55:40;8.43;;;7.50;;
13941;SDS011;7043;51.630;7.254;2022-08-19T13:58:07;7.55;;;6.95;;
13941;SDS011;7043;51.630;7.254;2022-08-19T14:00:34;8.23;;;6.97;;
13941;SDS011;7043;51.630;7.254;2022-08-19T14:03:00;7.88;;;7.18;;
13941;SDS011;7043;51.630;7.254;2022-08-19T14:05:27;7.25;;;6.63;;
13941;SDS011;7043;51.630;7.254;2022-08-19T14:07:53;8.40;;;7.00;;
13941;SDS011;7043;51.630;7.254;2022-08-19T14:10:19;7.30;;;6.60;;
13941;SDS011;7043;51.630;7.254;2022-08-19T14:12:46;7.07;;;6.38;;
13941;SDS011;7043;51.630;7.254;2022-08-19T14:15:12;7.25;;;6.55;;
13941;SDS011;7043;51.630;7.254;2022-08-19T14:17:39;6.72;;;6.03;;
13941;SDS011;7043;51.630;7.254;2022-08-19T14:20:06;6.50;;;5.85;;
13941;SDS011;7043;51.630;7.254;2022-08-19T14:22:38;6.07;;;5.57;;
13941;SDS011;7043;51.630;7.254;2022-08-19T14:25:05;6.22;;;5.57;;
13941;SDS011;7043;51.630;7.254;2022-08-19T14:27:35;7.05;;;6.30;;
13941;SDS011;7043;51.630;7.254;2022-08-19T14:30:01;7.18;;;5.80;;
13941;SDS011;7043;51.630;7.254;2022-08-19T14:32:28;5.32;;;4.93;;
13941;SDS011;7043;51.630;7.254;2022-08-19T14:34:54;6.03;;;4.95;;
13941;SDS011;7043;51.630;7.254;2022-08-19T14:37:20;6.55;;;4.70;;
13941;SDS011;7043;51.630;7.254;2022-08-19T14:39:49;7.18;;;5.78;;
13941;SDS011;7043;51.630;7.254;2022-08-19T14:42:15;5.93;;;5.32;;
13941;SDS011;7043;51.630;7.254;2022-08-19T14:44:41;7.50;;;6.80;;
13941;SDS011;7043;51.630;7.254;2022-08-19T14:47:08;6.00;;;5.40;;
13941;SDS011;7043;51.630;7.254;2022-08-19T14:49:34;6.32;;;5.63;;
13941;SDS011;7043;51.630;7.254;2022-08-19T14:52:00;5.65;;;5.15;;